Disclaimer

Please do not use the information listed here in-flight or in-navigation, as they are not provided to us by the airports but are provided by volunteers, so they might be outdated.

Search


Regions


Airport information page

Radio informations:
Tower (TWR) - 122.25 MHz
Automatic Terminal Information Service (ATIS) - 375.0 MHz
Approach (APP) - 125.1 MHz

Airport informations:
Latitude: 09° 46' 39.44" N
Longitude: 098° 35' 07.74" E
Elevation: 57 feet - 17 meters
Operating hours: From sunrise to sunset (SR-SS)
Operating agency: Civil government, landing fees and diplomatic clearance may be required
Timezone: UTC+7
Fuel: N/A

Runway information:
02/20 - 6562 x 148 feet< - >2000 x 45 meters

Recent METARs:
VTSR 182100Z 00000KT 9999 FEW025 24/23 Q1010
VTSR 182300Z 35003KT 260V030 9999 FEW025 23/23 Q1012
VTSR 182300Z 35003KT 260V030 9999 FEW025 23/23 Q1012

Airport on the map: